createdAt,value
2022-09-25T00:00:36.874Z,19.65
2022-09-25T00:03:03.712Z,19.65
2022-09-25T00:05:30.122Z,19.66
2022-09-25T00:07:56.468Z,19.66
2022-09-25T00:10:25.207Z,19.65
2022-09-25T00:12:51.820Z,19.64
2022-09-25T00:15:18.131Z,19.63
2022-09-25T00:17:44.453Z,19.64
2022-09-25T00:20:10.775Z,19.65
2022-09-25T00:22:37.104Z,19.65
2022-09-25T00:25:03.658Z,19.62
2022-09-25T00:27:29.981Z,19.69
2022-09-25T00:29:56.307Z,19.69
2022-09-25T00:32:22.868Z,19.68
2022-09-25T00:34:49.190Z,19.67
2022-09-25T00:37:15.528Z,19.65
2022-09-25T00:39:41.867Z,19.65
2022-09-25T00:42:11.436Z,19.64
2022-09-25T00:44:52.518Z,19.64
2022-09-25T00:47:20.490Z,19.65
2022-09-25T00:49:46.795Z,19.64
2022-09-25T00:52:13.169Z,19.62
2022-09-25T00:54:40.939Z,19.63
2022-09-25T00:57:08.155Z,19.61
2022-09-25T00:59:36.030Z,19.62
2022-09-25T01:02:02.416Z,19.62
2022-09-25T01:04:28.877Z,19.60
2022-09-25T01:06:55.344Z,19.62
2022-09-25T01:09:21.729Z,19.62
2022-09-25T01:11:48.053Z,19.63
2022-09-25T01:14:17.314Z,19.62
2022-09-25T01:16:47.348Z,19.61
2022-09-25T01:19:31.589Z,19.61
2022-09-25T01:22:05.024Z,19.63
2022-09-25T01:24:50.353Z,19.63
2022-09-25T01:27:20.019Z,19.62
2022-09-25T01:30:05.647Z,19.63
2022-09-25T01:32:33.611Z,19.62
2022-09-25T01:34:59.842Z,19.60
2022-09-25T01:37:26.825Z,19.59
2022-09-25T01:40:05.698Z,19.60
2022-09-25T01:42:34.932Z,19.61
2022-09-25T01:45:03.007Z,19.62
2022-09-25T01:47:29.465Z,19.61
2022-09-25T01:49:56.808Z,19.60
2022-09-25T01:52:25.264Z,19.60
2022-09-25T01:54:53.071Z,19.59
2022-09-25T01:57:20.737Z,19.59
2022-09-25T01:59:49.247Z,19.59
2022-09-25T02:02:19.173Z,19.61
2022-09-25T02:05:00.274Z,19.60
2022-09-25T02:07:28.030Z,19.60
2022-09-25T02:10:02.942Z,19.61
2022-09-25T02:12:34.275Z,19.59
2022-09-25T02:15:05.791Z,19.59
2022-09-25T02:17:58.988Z,19.59
2022-09-25T02:20:34.400Z,19.59
2022-09-25T02:23:08.768Z,19.59
2022-09-25T02:25:37.323Z,19.58
2022-09-25T02:28:03.793Z,19.57
2022-09-25T02:30:30.231Z,19.59
2022-09-25T02:32:58.058Z,19.59
2022-09-25T02:35:25.019Z,19.57
2022-09-25T02:37:51.726Z,19.59
2022-09-25T02:40:18.056Z,19.60
2022-09-25T02:42:50.832Z,19.63
2022-09-25T02:45:35.608Z,19.63
2022-09-25T02:48:19.054Z,19.64
2022-09-25T02:50:51.340Z,19.66
2022-09-25T02:53:36.202Z,19.67
2022-09-25T02:56:25.106Z,19.70
2022-09-25T02:58:52.499Z,19.70
2022-09-25T03:01:18.980Z,19.71
2022-09-25T03:03:45.629Z,19.72
2022-09-25T03:06:12.097Z,19.73
2022-09-25T03:08:39.160Z,19.70
2022-09-25T03:11:05.860Z,19.72
2022-09-25T03:13:33.103Z,19.72
2022-09-25T03:16:00.438Z,19.72
2022-09-25T03:18:27.167Z,19.73
2022-09-25T03:20:53.504Z,19.72
2022-09-25T03:23:19.814Z,19.73
2022-09-25T03:25:50.155Z,19.72
2022-09-25T03:28:17.619Z,19.70
2022-09-25T03:30:44.444Z,19.73
2022-09-25T03:33:11.151Z,19.74
2022-09-25T03:35:37.632Z,19.73
2022-09-25T03:38:04.347Z,19.74
2022-09-25T03:40:32.620Z,19.73
2022-09-25T03:42:59.157Z,19.72
2022-09-25T03:45:25.458Z,19.72
2022-09-25T03:47:51.766Z,19.73
2022-09-25T03:50:18.069Z,19.72
2022-09-25T03:52:44.371Z,19.73
2022-09-25T03:55:11.910Z,19.72
2022-09-25T03:57:39.116Z,19.68
2022-09-25T04:00:06.125Z,19.67
2022-09-25T04:02:38.662Z,19.69
2022-09-25T04:05:05.236Z,19.69
2022-09-25T04:07:32.390Z,19.68
2022-09-25T04:09:58.686Z,19.70
2022-09-25T04:12:24.989Z,19.68
2022-09-25T04:14:51.290Z,19.69
2022-09-25T04:17:17.617Z,19.68
2022-09-25T04:19:43.923Z,19.67
2022-09-25T04:22:10.253Z,19.66
2022-09-25T04:24:48.971Z,19.66
2022-09-25T04:27:16.873Z,19.64
2022-09-25T04:29:43.376Z,19.67
2022-09-25T04:32:28.495Z,19.66
2022-09-25T04:34:54.811Z,19.66
2022-09-25T04:37:26.224Z,19.66
2022-09-25T04:39:55.855Z,19.66
2022-09-25T04:42:25.145Z,19.64
2022-09-25T04:44:52.419Z,19.65
2022-09-25T04:47:18.862Z,19.63
2022-09-25T04:49:45.167Z,19.64
2022-09-25T04:52:15.085Z,19.63
2022-09-25T04:54:42.115Z,19.63
2022-09-25T04:57:09.187Z,19.63
2022-09-25T04:59:35.722Z,19.62
2022-09-25T05:02:02.109Z,19.63
2022-09-25T05:04:28.520Z,19.62
2022-09-25T05:06:54.838Z,19.65
2022-09-25T05:09:21.145Z,19.65
2022-09-25T05:11:47.456Z,19.69
2022-09-25T05:14:13.915Z,19.70
2022-09-25T05:16:40.331Z,19.69
2022-09-25T05:19:06.699Z,19.72
2022-09-25T05:21:33.021Z,19.74
2022-09-25T05:23:59.331Z,19.75
2022-09-25T05:26:26.437Z,19.75
2022-09-25T05:28:52.745Z,19.74
2022-09-25T05:31:19.080Z,19.77
2022-09-25T05:33:45.460Z,19.76
2022-09-25T05:36:12.606Z,19.76
2022-09-25T05:38:39.345Z,19.78
2022-09-25T05:41:06.599Z,19.78
2022-09-25T05:43:32.917Z,19.77
2022-09-25T05:46:00.085Z,19.77
2022-09-25T05:48:26.451Z,19.75
2022-09-25T05:50:55.923Z,19.75
2022-09-25T05:53:22.361Z,19.77
2022-09-25T05:55:49.642Z,19.79
2022-09-25T05:58:15.946Z,19.79
2022-09-25T06:00:42.553Z,19.79
2022-09-25T06:03:09.015Z,19.80
2022-09-25T06:05:35.350Z,19.79
2022-09-25T06:08:01.728Z,19.80
2022-09-25T06:10:28.227Z,19.80
2022-09-25T06:12:58.953Z,19.80
2022-09-25T06:15:28.537Z,19.79
2022-09-25T06:17:55.476Z,19.81
2022-09-25T06:20:22.588Z,19.79
2022-09-25T06:22:54.942Z,19.81
2022-09-25T06:25:22.883Z,19.81
2022-09-25T06:27:51.834Z,19.79
2022-09-25T06:30:19.953Z,19.82
2022-09-25T06:32:46.426Z,19.82
2022-09-25T06:35:12.739Z,19.82
2022-09-25T06:37:39.079Z,19.81
2022-09-25T06:40:05.638Z,19.80
2022-09-25T06:42:35.030Z,19.81
2022-09-25T06:45:01.669Z,19.85
2022-09-25T06:47:27.980Z,19.78
2022-09-25T06:49:54.295Z,19.74
2022-09-25T06:52:20.605Z,19.83
2022-09-25T06:54:46.933Z,19.85
2022-09-25T06:57:13.239Z,19.86
2022-09-25T06:59:39.578Z,19.91
2022-09-25T07:02:24.806Z,19.90
2022-09-25T07:04:51.967Z,19.90
2022-09-25T07:07:21.259Z,19.92
2022-09-25T07:09:50.231Z,19.95
2022-09-25T07:12:18.314Z,19.95
2022-09-25T07:14:46.832Z,19.97
2022-09-25T07:17:13.649Z,19.97
2022-09-25T07:19:40.404Z,19.99
2022-09-25T07:22:06.901Z,19.95
2022-09-25T07:24:33.440Z,19.98
2022-09-25T07:26:59.822Z,19.95
2022-09-25T07:29:26.233Z,20.00
2022-09-25T07:31:52.567Z,19.98
2022-09-25T07:34:18.894Z,20.00
2022-09-25T07:36:45.284Z,19.99
2022-09-25T07:39:16.100Z,19.98
2022-09-25T07:41:43.989Z,19.98
2022-09-25T07:44:38.809Z,20.00
2022-09-25T07:46:56.619Z,19.98
2022-09-25T07:49:22.931Z,19.98
2022-09-25T07:51:49.266Z,19.99
2022-09-25T07:54:15.611Z,19.97
2022-09-25T07:56:41.948Z,19.97
2022-09-25T07:59:08.294Z,19.94
2022-09-25T08:01:38.216Z,19.95
2022-09-25T08:04:07.579Z,19.96
2022-09-25T08:06:34.246Z,19.96
2022-09-25T08:09:00.568Z,19.97
2022-09-25T08:11:28.097Z,19.96
2022-09-25T08:13:54.444Z,19.94
2022-09-25T08:16:22.665Z,19.96
2022-09-25T08:18:49.216Z,19.95
2022-09-25T08:21:16.638Z,19.97
2022-09-25T08:23:47.691Z,19.97
2022-09-25T08:26:14.437Z,19.94
2022-09-25T08:28:40.794Z,19.92
2022-09-25T08:31:08.940Z,19.93
2022-09-25T08:33:35.936Z,19.93
2022-09-25T08:36:02.539Z,19.94
2022-09-25T08:38:28.949Z,19.95
2022-09-25T08:40:56.218Z,19.96
2022-09-25T08:43:22.762Z,19.92
2022-09-25T08:46:07.948Z,19.97
2022-09-25T08:48:58.436Z,19.95
2022-09-25T08:51:24.741Z,19.92
2022-09-25T08:53:51.056Z,19.93
2022-09-25T08:56:20.428Z,19.90
2022-09-25T08:58:48.081Z,19.88
2022-09-25T09:01:15.295Z,19.89
2022-09-25T09:03:46.689Z,19.91
2022-09-25T09:06:14.314Z,19.92
2022-09-25T09:08:40.821Z,19.89
2022-09-25T09:11:11.351Z,19.91
2022-09-25T09:13:44.472Z,19.89
2022-09-25T09:16:15.724Z,19.93
2022-09-25T09:18:42.077Z,19.94
2022-09-25T09:21:11.580Z,19.93
2022-09-25T09:23:45.327Z,19.94
2022-09-25T09:26:21.074Z,19.95
2022-09-25T09:28:56.422Z,19.92
2022-09-25T09:31:36.152Z,19.93
2022-09-25T09:34:18.477Z,19.95
2022-09-25T09:36:56.690Z,19.95
2022-09-25T09:39:28.627Z,19.95
2022-09-25T09:41:58.189Z,19.94
2022-09-25T09:44:25.374Z,19.94
2022-09-25T09:46:52.323Z,19.94
2022-09-25T09:49:33.737Z,19.93
2022-09-25T09:52:02.143Z,19.92
2022-09-25T09:54:35.808Z,19.93
2022-09-25T09:57:03.061Z,19.93
2022-09-25T09:59:31.402Z,19.92
2022-09-25T10:02:01.725Z,19.92
2022-09-25T10:04:30.137Z,19.86
2022-09-25T10:06:58.894Z,19.67
2022-09-25T10:09:26.341Z,19.54
2022-09-25T10:12:03.499Z,19.49
2022-09-25T10:14:32.317Z,19.53
2022-09-25T10:16:58.628Z,19.57
2022-09-25T10:19:25.382Z,19.62
2022-09-25T10:21:53.026Z,19.76
2022-09-25T10:24:41.059Z,19.82
2022-09-25T10:27:19.944Z,19.85
2022-09-25T10:29:46.295Z,19.87
2022-09-25T10:32:12.624Z,19.88
2022-09-25T10:34:40.571Z,19.88
2022-09-25T10:37:19.638Z,19.88
2022-09-25T10:39:46.458Z,19.89
2022-09-25T10:42:33.072Z,19.88
2022-09-25T10:44:59.428Z,19.89
2022-09-25T10:47:48.328Z,19.89
2022-09-25T10:50:24.727Z,19.88
2022-09-25T10:52:52.865Z,19.89
2022-09-25T10:55:20.678Z,19.89
2022-09-25T10:57:47.041Z,19.90
2022-09-25T11:00:19.653Z,19.89
2022-09-25T11:02:46.532Z,19.88
2022-09-25T11:05:16.880Z,19.91
2022-09-25T11:08:02.367Z,19.92
2022-09-25T11:10:29.539Z,19.93
2022-09-25T11:12:56.739Z,19.93
2022-09-25T11:15:23.650Z,19.92
2022-09-25T11:17:50.652Z,19.94
2022-09-25T11:20:17.608Z,19.94
2022-09-25T11:22:51.842Z,19.93
2022-09-25T11:25:22.125Z,19.93
2022-09-25T11:27:53.446Z,19.94
2022-09-25T11:30:20.160Z,19.97
2022-09-25T11:32:52.385Z,19.97
2022-09-25T11:35:34.699Z,19.98
2022-09-25T11:38:17.523Z,19.99
2022-09-25T11:41:07.867Z,19.99
2022-09-25T11:43:39.412Z,20.00
2022-09-25T11:46:24.667Z,20.02
2022-09-25T11:48:54.574Z,20.03
2022-09-25T11:51:29.055Z,20.01
2022-09-25T11:54:32.688Z,20.04
2022-09-25T11:57:04.695Z,20.03
2022-09-25T11:59:49.835Z,20.04
2022-09-25T12:02:21.542Z,20.06
2022-09-25T12:04:59.095Z,20.05
2022-09-25T12:07:33.382Z,20.08
2022-09-25T12:10:06.754Z,20.08
2022-09-25T12:12:52.005Z,20.09
2022-09-25T12:15:25.424Z,20.11
2022-09-25T12:17:57.920Z,20.11
2022-09-25T12:20:42.903Z,20.16
2022-09-25T12:23:13.353Z,20.12
2022-09-25T12:25:58.304Z,20.13
2022-09-25T12:28:39.977Z,20.13
2022-09-25T12:31:13.689Z,20.18
2022-09-25T12:33:49.545Z,20.23
2022-09-25T12:36:26.042Z,20.47
2022-09-25T12:38:55.465Z,20.63
2022-09-25T12:41:34.363Z,20.66
2022-09-25T12:44:02.178Z,20.78
2022-09-25T12:46:37.713Z,20.94
2022-09-25T12:49:14.227Z,20.98
2022-09-25T12:51:41.543Z,20.87
2022-09-25T12:54:15.707Z,20.94
2022-09-25T12:56:43.844Z,20.87
2022-09-25T12:59:11.846Z,20.83
2022-09-25T13:01:47.447Z,20.82
2022-09-25T13:04:18.454Z,21.09
2022-09-25T13:06:50.129Z,21.07
2022-09-25T13:09:30.446Z,20.81
2022-09-25T13:12:01.830Z,21.02
2022-09-25T13:14:42.542Z,21.12
2022-09-25T13:17:10.575Z,21.01
2022-09-25T13:19:36.913Z,21.09
2022-09-25T13:22:06.319Z,20.99
2022-09-25T13:24:39.689Z,20.98
2022-09-25T13:27:06.492Z,20.90
2022-09-25T13:29:35.537Z,21.16
2022-09-25T13:32:02.392Z,21.14
2022-09-25T13:34:28.729Z,21.11
2022-09-25T13:36:57.768Z,21.28
2022-09-25T13:39:46.237Z,21.18
2022-09-25T13:42:14.080Z,21.25
2022-09-25T13:44:43.560Z,21.37
2022-09-25T13:47:30.047Z,21.53
2022-09-25T13:50:11.556Z,21.59
2022-09-25T13:52:40.645Z,21.48
2022-09-25T13:55:13.152Z,21.27
2022-09-25T13:58:01.758Z,20.92
2022-09-25T14:00:33.647Z,20.85
2022-09-25T14:03:03.121Z,20.82
2022-09-25T14:05:36.002Z,20.83
2022-09-25T14:08:03.510Z,20.81
2022-09-25T14:10:29.818Z,21.17
2022-09-25T14:12:56.145Z,21.05
2022-09-25T14:15:23.906Z,21.12
2022-09-25T14:17:50.840Z,21.15
2022-09-25T14:20:23.462Z,21.09
2022-09-25T14:22:53.259Z,21.16
2022-09-25T14:25:33.121Z,21.38
2022-09-25T14:28:00.672Z,21.43
2022-09-25T14:30:30.023Z,21.11
2022-09-25T14:33:14.020Z,21.00
2022-09-25T14:35:47.610Z,20.91
2022-09-25T14:38:13.884Z,20.88
2022-09-25T14:40:40.886Z,20.85
2022-09-25T14:43:11.082Z,20.82
2022-09-25T14:45:40.532Z,20.79
2022-09-25T14:48:09.481Z,20.76
2022-09-25T14:50:36.643Z,20.75
2022-09-25T14:53:04.744Z,20.77
2022-09-25T14:55:33.521Z,20.75
2022-09-25T14:58:01.343Z,20.73
2022-09-25T15:00:28.333Z,20.73
2022-09-25T15:02:55.187Z,20.69
2022-09-25T15:05:21.465Z,20.68
2022-09-25T15:07:47.857Z,20.71
2022-09-25T15:10:49.605Z,20.68
2022-09-25T15:13:15.999Z,20.67
2022-09-25T15:16:02.430Z,20.63
2022-09-25T15:18:28.818Z,20.60
2022-09-25T15:20:55.344Z,20.54
2022-09-25T15:23:21.677Z,20.56
2022-09-25T15:25:52.746Z,20.55
2022-09-25T15:28:19.785Z,20.53
2022-09-25T15:30:46.392Z,20.50
2022-09-25T15:33:29.189Z,20.53
2022-09-25T15:35:56.167Z,20.51
2022-09-25T15:38:29.485Z,20.54
2022-09-25T15:40:55.918Z,20.50
2022-09-25T15:43:22.355Z,20.52
2022-09-25T15:46:07.121Z,20.53
2022-09-25T15:48:40.201Z,20.53
2022-09-25T15:51:18.479Z,20.54
2022-09-25T15:53:49.178Z,20.49
2022-09-25T15:56:18.201Z,20.47
2022-09-25T15:58:46.291Z,20.47
2022-09-25T16:01:31.836Z,20.49
2022-09-25T16:04:17.137Z,20.49
2022-09-25T16:06:43.701Z,20.47
2022-09-25T16:09:23.467Z,20.44
2022-09-25T16:11:49.775Z,20.42
2022-09-25T16:14:21.975Z,20.42
2022-09-25T16:16:49.749Z,20.42
2022-09-25T16:19:24.882Z,20.44
2022-09-25T16:21:51.196Z,20.42
2022-09-25T16:24:18.162Z,20.43
2022-09-25T16:26:44.511Z,20.42
2022-09-25T16:29:16.506Z,20.41
2022-09-25T16:31:43.350Z,20.40
2022-09-25T16:34:29.235Z,20.39
2022-09-25T16:36:57.642Z,20.39
2022-09-25T16:39:24.863Z,20.38
2022-09-25T16:41:51.305Z,20.37
2022-09-25T16:44:18.860Z,20.39
2022-09-25T16:46:52.064Z,20.44
2022-09-25T16:49:19.989Z,20.41
2022-09-25T16:51:46.310Z,20.46
2022-09-25T16:54:13.868Z,20.41
2022-09-25T16:56:42.115Z,20.43
2022-09-25T16:59:17.366Z,20.40
2022-09-25T17:01:43.817Z,20.37
2022-09-25T17:04:10.686Z,20.35
2022-09-25T17:06:40.733Z,20.34
2022-09-25T17:09:13.618Z,20.35
2022-09-25T17:11:40.475Z,20.35
2022-09-25T17:14:06.817Z,20.38
2022-09-25T17:16:33.988Z,20.40
2022-09-25T17:19:06.621Z,20.41
2022-09-25T17:21:34.006Z,20.40
2022-09-25T17:24:00.331Z,20.42
2022-09-25T17:26:26.658Z,20.41
2022-09-25T17:28:52.963Z,20.45
2022-09-25T17:31:20.187Z,20.46
2022-09-25T17:33:52.601Z,20.44
2022-09-25T17:36:18.955Z,20.40
2022-09-25T17:38:45.301Z,20.39
2022-09-25T17:41:16.319Z,20.39
2022-09-25T17:43:43.076Z,20.42
2022-09-25T17:46:09.455Z,20.41
2022-09-25T17:48:35.797Z,20.41
2022-09-25T17:51:18.456Z,20.40
2022-09-25T17:53:44.830Z,20.38
2022-09-25T17:56:11.264Z,20.37
2022-09-25T17:58:37.581Z,20.42
2022-09-25T18:01:06.615Z,20.22
2022-09-25T18:03:32.977Z,20.27
2022-09-25T18:05:59.299Z,20.12
2022-09-25T18:08:25.599Z,20.07
2022-09-25T18:10:53.174Z,20.16
2022-09-25T18:13:20.163Z,20.32
2022-09-25T18:15:47.654Z,20.37
2022-09-25T18:18:14.019Z,20.40
2022-09-25T18:20:59.026Z,20.43
2022-09-25T18:23:25.353Z,20.42
2022-09-25T18:25:51.694Z,20.45
2022-09-25T18:28:18.043Z,20.45
2022-09-25T18:30:44.416Z,20.45
2022-09-25T18:33:10.783Z,20.45
2022-09-25T18:35:37.117Z,20.44
2022-09-25T18:38:03.499Z,20.45
2022-09-25T18:40:29.846Z,20.44
2022-09-25T18:42:56.217Z,20.45
2022-09-25T18:45:22.529Z,20.43
2022-09-25T18:47:48.855Z,20.38
2022-09-25T18:50:20.514Z,20.42
2022-09-25T18:52:48.434Z,20.41
2022-09-25T18:55:14.739Z,20.43
2022-09-25T18:57:42.613Z,20.43
2022-09-25T19:00:09.063Z,20.44
2022-09-25T19:02:38.840Z,20.44
2022-09-25T19:05:05.841Z,20.44
2022-09-25T19:07:32.171Z,20.43
2022-09-25T19:10:01.361Z,20.42
2022-09-25T19:12:27.696Z,20.44
2022-09-25T19:14:54.014Z,20.40
2022-09-25T19:17:20.361Z,20.42
2022-09-25T19:19:46.665Z,20.40
2022-09-25T19:22:17.768Z,20.40
2022-09-25T19:24:45.948Z,20.40
2022-09-25T19:27:12.632Z,20.40
2022-09-25T19:29:38.957Z,20.42
2022-09-25T19:32:05.694Z,20.39
2022-09-25T19:34:32.029Z,20.39
2022-09-25T19:36:58.533Z,20.40
2022-09-25T19:39:24.850Z,20.39
2022-09-25T19:41:51.235Z,20.40
2022-09-25T19:44:18.260Z,20.39
2022-09-25T19:46:45.148Z,20.40
2022-09-25T19:49:12.055Z,20.38
2022-09-25T19:51:38.558Z,20.37
2022-09-25T19:54:05.381Z,20.40
2022-09-25T19:56:31.807Z,20.40
2022-09-25T19:58:58.241Z,20.41
2022-09-25T20:01:27.459Z,20.40
2022-09-25T20:03:55.648Z,20.39
2022-09-25T20:06:22.127Z,20.35
2022-09-25T20:08:48.653Z,20.38
2022-09-25T20:11:16.666Z,20.36
2022-09-25T20:13:43.068Z,20.38
2022-09-25T20:16:09.916Z,20.38
2022-09-25T20:18:36.330Z,20.36
2022-09-25T20:21:03.388Z,20.37
2022-09-25T20:23:29.707Z,20.36
2022-09-25T20:26:06.021Z,20.35
2022-09-25T20:28:32.350Z,20.35
2022-09-25T20:31:02.458Z,20.35
2022-09-25T20:33:32.477Z,20.37
2022-09-25T20:36:01.351Z,20.36
2022-09-25T20:38:27.714Z,20.37
2022-09-25T20:40:54.102Z,20.39
2022-09-25T20:43:21.522Z,20.39
2022-09-25T20:45:55.578Z,20.40
2022-09-25T20:48:21.952Z,20.40
2022-09-25T20:50:51.546Z,20.40
2022-09-25T20:53:17.891Z,20.39
2022-09-25T20:55:44.239Z,20.39
2022-09-25T20:58:10.550Z,20.39
2022-09-25T21:00:36.870Z,20.40
2022-09-25T21:03:03.980Z,20.40
2022-09-25T21:05:30.319Z,20.40
2022-09-25T21:07:56.631Z,20.40
2022-09-25T21:10:23.351Z,20.39
2022-09-25T21:12:49.671Z,20.36
2022-09-25T21:15:15.998Z,20.37
2022-09-25T21:17:42.320Z,20.37
2022-09-25T21:20:08.869Z,20.37
2022-09-25T21:22:35.837Z,20.37
2022-09-25T21:25:02.177Z,20.37
2022-09-25T21:27:29.494Z,20.39
2022-09-25T21:29:55.832Z,20.39
2022-09-25T21:32:22.157Z,20.38
2022-09-25T21:34:48.518Z,20.38
2022-09-25T21:37:14.833Z,20.35
2022-09-25T21:39:41.159Z,20.37
2022-09-25T21:42:07.480Z,20.37
2022-09-25T21:44:33.806Z,20.35
2022-09-25T21:47:00.487Z,20.36
2022-09-25T21:49:26.895Z,20.34
2022-09-25T21:51:53.240Z,20.36
2022-09-25T21:54:19.564Z,20.36
2022-09-25T21:56:45.903Z,20.33
2022-09-25T21:59:12.500Z,20.30
2022-09-25T22:01:39.948Z,20.34
2022-09-25T22:04:06.779Z,20.33
2022-09-25T22:06:34.082Z,20.32
2022-09-25T22:09:01.273Z,20.34
2022-09-25T22:11:27.583Z,20.34
2022-09-25T22:13:54.489Z,20.32
2022-09-25T22:16:21.582Z,20.32
2022-09-25T22:18:51.638Z,20.32
2022-09-25T22:21:18.745Z,20.31
2022-09-25T22:23:45.050Z,20.32
2022-09-25T22:26:11.663Z,20.29
2022-09-25T22:28:38.050Z,20.32
2022-09-25T22:31:09.640Z,20.28
2022-09-25T22:33:36.034Z,20.29
2022-09-25T22:36:02.671Z,20.28
2022-09-25T22:38:29.238Z,20.28
2022-09-25T22:40:55.727Z,20.28
2022-09-25T22:43:22.147Z,20.29
2022-09-25T22:45:49.237Z,20.29
2022-09-25T22:48:15.606Z,20.28
2022-09-25T22:50:54.810Z,20.23
2022-09-25T22:53:21.724Z,20.23
2022-09-25T22:55:48.077Z,20.23
2022-09-25T22:58:14.703Z,20.22
2022-09-25T23:00:42.808Z,20.23
2022-09-25T23:03:09.523Z,20.21
2022-09-25T23:05:36.865Z,20.23
2022-09-25T23:08:03.251Z,20.22
2022-09-25T23:10:48.693Z,20.21
2022-09-25T23:13:15.877Z,20.22
2022-09-25T23:15:42.204Z,20.22
2022-09-25T23:18:08.539Z,20.21
2022-09-25T23:20:34.853Z,20.21
2022-09-25T23:23:03.419Z,20.20
2022-09-25T23:25:32.496Z,20.21
2022-09-25T23:27:59.699Z,20.20
2022-09-25T23:30:26.107Z,20.19
2022-09-25T23:32:55.540Z,20.21
2022-09-25T23:35:21.875Z,20.20
2022-09-25T23:37:48.201Z,20.18
2022-09-25T23:40:15.830Z,20.20
2022-09-25T23:42:43.289Z,20.18
2022-09-25T23:45:10.007Z,20.20
2022-09-25T23:47:36.335Z,20.20
2022-09-25T23:50:04.839Z,20.19
2022-09-25T23:52:31.403Z,20.19
2022-09-25T23:54:58.463Z,20.18
2022-09-25T23:57:24.795Z,20.19
2022-09-25T23:59:51.150Z,20.18
